createdAt,value
2019-02-19T00:00:44.575Z,35.47
2019-02-19T00:03:14.324Z,35.46
2019-02-19T00:05:43.963Z,35.48
2019-02-19T00:08:13.638Z,35.56
2019-02-19T00:10:43.412Z,35.59
2019-02-19T00:13:13.167Z,35.65
2019-02-19T00:15:42.870Z,35.79
2019-02-19T00:18:12.513Z,35.74
2019-02-19T00:20:42.192Z,35.82
2019-02-19T00:23:11.833Z,35.86
2019-02-19T00:25:41.506Z,35.87
2019-02-19T00:28:11.151Z,36.03
2019-02-19T00:30:40.941Z,36.08
2019-02-19T00:33:10.687Z,36.16
2019-02-19T00:35:40.337Z,36.03
2019-02-19T00:38:10.077Z,36.47
2019-02-19T00:40:39.771Z,36.52
2019-02-19T00:43:09.540Z,36.93
2019-02-19T00:45:39.226Z,36.99
2019-02-19T00:48:08.950Z,36.98
2019-02-19T00:50:38.548Z,35.92
2019-02-19T00:53:08.338Z,36.61
2019-02-19T00:55:37.976Z,35.92
2019-02-19T00:58:07.651Z,36.36
2019-02-19T01:00:37.305Z,35.74
2019-02-19T01:03:06.977Z,36.14
2019-02-19T01:05:36.704Z,36.74
2019-02-19T01:08:06.418Z,36.63
2019-02-19T01:10:36.123Z,36.76
2019-02-19T01:13:05.840Z,36.69
2019-02-19T01:15:35.545Z,36.59
2019-02-19T01:18:05.266Z,36.44
2019-02-19T01:20:34.952Z,36.48
2019-02-19T01:23:04.583Z,36.40
2019-02-19T01:25:34.318Z,36.41
2019-02-19T01:28:03.972Z,36.44
2019-02-19T01:30:33.657Z,36.40
2019-02-19T01:33:03.398Z,36.33
2019-02-19T01:35:33.040Z,36.29
2019-02-19T01:38:02.730Z,36.33
2019-02-19T01:40:32.354Z,36.26
2019-02-19T01:43:02.032Z,36.21
2019-02-19T01:45:34.125Z,36.19
2019-02-19T01:48:03.105Z,36.22
2019-02-19T01:50:32.790Z,36.22
2019-02-19T01:53:02.618Z,36.15
2019-02-19T01:55:32.258Z,36.21
2019-02-19T01:58:01.944Z,36.16
2019-02-19T02:00:31.556Z,36.23
2019-02-19T02:03:01.211Z,36.19
2019-02-19T02:05:30.975Z,36.24
2019-02-19T02:08:00.600Z,36.13
2019-02-19T02:10:30.287Z,36.24
2019-02-19T02:12:59.939Z,36.13
2019-02-19T02:15:29.611Z,36.13
2019-02-19T02:17:59.427Z,36.08
2019-02-19T02:20:29.071Z,36.00
2019-02-19T02:22:58.741Z,36.07
2019-02-19T02:25:28.394Z,36.03
2019-02-19T02:27:58.061Z,36.00
2019-02-19T02:30:27.694Z,35.98
2019-02-19T02:32:57.393Z,36.02
2019-02-19T02:35:27.100Z,36.04
2019-02-19T02:37:56.905Z,36.08
2019-02-19T02:40:26.640Z,36.10
2019-02-19T02:42:56.430Z,36.03
2019-02-19T02:45:26.188Z,36.05
2019-02-19T02:47:55.863Z,35.96
2019-02-19T02:50:25.566Z,35.98
2019-02-19T02:52:55.184Z,35.95
2019-02-19T02:55:24.889Z,35.95
2019-02-19T02:57:54.519Z,35.96
2019-02-19T03:00:24.237Z,35.88
2019-02-19T03:02:53.923Z,35.96
2019-02-19T03:05:25.341Z,35.93
2019-02-19T03:07:57.876Z,35.88
2019-02-19T03:10:27.517Z,35.90
2019-02-19T03:12:57.172Z,35.83
2019-02-19T03:15:26.792Z,35.93
2019-02-19T03:17:56.591Z,35.85
2019-02-19T03:20:26.335Z,35.84
2019-02-19T03:22:56.013Z,35.90
2019-02-19T03:25:25.766Z,35.95
2019-02-19T03:27:55.471Z,35.85
2019-02-19T03:30:25.069Z,35.89
2019-02-19T03:32:54.743Z,35.96
2019-02-19T03:35:24.499Z,35.90
2019-02-19T03:37:54.241Z,35.91
2019-02-19T03:40:23.987Z,35.88
2019-02-19T03:42:53.616Z,35.93
2019-02-19T03:45:23.304Z,35.86
2019-02-19T03:47:52.943Z,35.92
2019-02-19T03:50:22.620Z,35.86
2019-02-19T03:52:52.402Z,35.90
2019-02-19T03:55:22.250Z,35.88
2019-02-19T03:57:51.890Z,35.74
2019-02-19T04:00:21.573Z,35.84
2019-02-19T04:02:51.242Z,35.75
2019-02-19T04:05:20.998Z,35.70
2019-02-19T04:07:50.763Z,35.89
2019-02-19T04:10:20.522Z,35.92
2019-02-19T04:12:50.233Z,35.90
2019-02-19T04:15:19.980Z,35.85
2019-02-19T04:17:49.764Z,35.92
2019-02-19T04:20:19.560Z,35.96
2019-02-19T04:22:49.269Z,35.79
2019-02-19T04:25:18.978Z,35.88
2019-02-19T04:27:48.727Z,35.85
2019-02-19T04:30:18.368Z,36.01
2019-02-19T04:32:48.127Z,35.98
2019-02-19T04:35:17.768Z,35.87
2019-02-19T04:37:47.472Z,35.94
2019-02-19T04:40:17.157Z,35.96
2019-02-19T04:42:46.965Z,35.93
2019-02-19T04:45:16.584Z,36.07
2019-02-19T04:47:46.280Z,36.34
2019-02-19T04:50:16.086Z,34.57
2019-02-19T04:52:47.671Z,35.50
2019-02-19T04:55:17.312Z,35.82
2019-02-19T04:57:46.842Z,35.97
2019-02-19T05:00:16.633Z,35.75
2019-02-19T05:02:46.314Z,35.58
2019-02-19T05:05:16.352Z,35.65
2019-02-19T05:07:46.199Z,35.43
2019-02-19T05:10:16.327Z,35.39
2019-02-19T05:12:46.065Z,35.25
2019-02-19T05:15:15.766Z,35.19
2019-02-19T05:17:45.387Z,35.05
2019-02-19T05:20:14.987Z,34.81
2019-02-19T05:22:44.720Z,34.69
2019-02-19T05:25:14.503Z,34.69
2019-02-19T05:27:44.129Z,34.54
2019-02-19T05:30:13.817Z,34.39
2019-02-19T05:32:43.525Z,34.51
2019-02-19T05:35:13.251Z,30.52
2019-02-19T05:37:42.965Z,29.35
2019-02-19T05:40:12.598Z,30.45
2019-02-19T05:42:42.285Z,30.50
2019-02-19T05:45:11.954Z,30.35
2019-02-19T05:47:41.860Z,30.03
2019-02-19T05:50:11.540Z,29.61
2019-02-19T05:52:41.339Z,29.81
2019-02-19T05:55:10.971Z,30.34
2019-02-19T05:57:40.637Z,31.01
2019-02-19T06:00:11.074Z,30.46
2019-02-19T06:02:40.787Z,30.25
2019-02-19T06:05:10.565Z,30.08
2019-02-19T06:07:40.364Z,29.88
2019-02-19T06:10:11.343Z,30.16
2019-02-19T06:12:41.053Z,30.50
2019-02-19T06:15:11.228Z,30.74
2019-02-19T06:17:40.989Z,30.76
2019-02-19T06:20:10.823Z,30.90
2019-02-19T06:22:40.526Z,31.17
2019-02-19T06:25:10.234Z,31.58
2019-02-19T06:27:39.958Z,32.42
2019-02-19T06:30:12.313Z,32.37
2019-02-19T06:32:41.918Z,32.38
2019-02-19T06:35:11.699Z,33.11
2019-02-19T06:37:41.368Z,32.90
2019-02-19T06:40:22.592Z,33.07
2019-02-19T06:42:52.527Z,33.12
2019-02-19T06:45:22.286Z,33.34
2019-02-19T06:47:52.057Z,33.28
2019-02-19T06:50:21.704Z,33.44
2019-02-19T06:52:51.398Z,33.61
2019-02-19T06:55:21.103Z,33.65
2019-02-19T06:57:50.831Z,33.68
2019-02-19T07:00:20.611Z,33.75
2019-02-19T07:03:12.095Z,33.82
2019-02-19T07:05:41.860Z,33.86
2019-02-19T07:08:11.618Z,34.01
2019-02-19T07:10:41.344Z,34.01
2019-02-19T07:13:11.000Z,34.09
2019-02-19T07:15:40.681Z,34.10
2019-02-19T07:18:10.438Z,34.18
2019-02-19T07:20:40.127Z,34.16
2019-02-19T07:23:09.903Z,34.24
2019-02-19T07:25:39.737Z,34.26
2019-02-19T07:28:09.376Z,34.43
2019-02-19T07:30:39.067Z,34.41
2019-02-19T07:33:08.777Z,34.49
2019-02-19T07:35:38.514Z,34.46
2019-02-19T07:38:08.246Z,34.56
2019-02-19T07:40:37.936Z,34.92
2019-02-19T07:43:07.619Z,34.91
2019-02-19T07:45:37.251Z,34.94
2019-02-19T07:48:07.032Z,34.57
2019-02-19T07:50:36.674Z,35.05
2019-02-19T07:53:06.349Z,34.86
2019-02-19T07:55:36.201Z,34.90
2019-02-19T07:58:05.879Z,34.86
2019-02-19T08:00:35.523Z,35.01
2019-02-19T08:03:05.289Z,35.04
2019-02-19T08:05:34.919Z,35.17
2019-02-19T08:08:04.559Z,35.16
2019-02-19T08:10:34.322Z,35.24
2019-02-19T08:13:03.973Z,35.46
2019-02-19T08:15:33.704Z,35.63
2019-02-19T08:18:03.419Z,35.71
2019-02-19T08:20:33.171Z,35.70
2019-02-19T08:23:02.825Z,35.83
2019-02-19T08:25:32.711Z,36.06
2019-02-19T08:28:02.315Z,36.03
2019-02-19T08:30:32.042Z,35.99
2019-02-19T08:33:02.750Z,35.98
2019-02-19T08:35:32.387Z,35.91
2019-02-19T08:38:02.066Z,35.91
2019-02-19T08:40:31.935Z,35.86
2019-02-19T08:43:01.610Z,35.93
2019-02-19T08:45:31.324Z,35.89
2019-02-19T08:48:00.944Z,35.83
2019-02-19T08:50:30.625Z,35.85
2019-02-19T08:53:00.410Z,35.66
2019-02-19T08:55:30.159Z,35.60
2019-02-19T08:57:59.788Z,35.63
2019-02-19T09:00:29.365Z,35.64
2019-02-19T09:02:59.210Z,35.46
2019-02-19T09:05:28.986Z,35.62
2019-02-19T09:07:58.665Z,35.24
2019-02-19T09:10:28.525Z,35.25
2019-02-19T09:12:58.181Z,35.18
2019-02-19T09:15:27.940Z,35.01
2019-02-19T09:17:57.658Z,34.49
2019-02-19T09:20:27.562Z,34.36
2019-02-19T09:22:57.204Z,34.13
2019-02-19T09:25:26.880Z,34.30
2019-02-19T09:27:56.704Z,34.50
2019-02-19T09:30:26.582Z,33.76
2019-02-19T09:32:56.438Z,33.93
2019-02-19T09:35:26.258Z,33.74
2019-02-19T09:37:55.876Z,34.31
2019-02-19T09:40:25.570Z,34.35
2019-02-19T09:42:55.268Z,34.36
2019-02-19T09:45:25.086Z,34.74
2019-02-19T09:48:01.053Z,34.74
2019-02-19T09:50:26.347Z,34.70
2019-02-19T09:53:00.117Z,34.74
2019-02-19T09:55:27.322Z,34.67
2019-02-19T09:57:57.101Z,34.71
2019-02-19T10:00:26.841Z,34.68
2019-02-19T10:02:56.473Z,34.72
2019-02-19T10:05:26.212Z,34.75
2019-02-19T10:07:56.043Z,34.71
2019-02-19T10:10:25.877Z,32.80
2019-02-19T10:12:55.527Z,33.67
2019-02-19T10:15:25.215Z,34.29
2019-02-19T10:17:55.023Z,34.80
2019-02-19T10:20:24.723Z,35.04
2019-02-19T10:22:54.470Z,35.21
2019-02-19T10:25:24.080Z,36.18
2019-02-19T10:27:53.756Z,36.21
2019-02-19T10:30:23.438Z,36.79
2019-02-19T10:32:53.179Z,36.51
2019-02-19T10:35:22.796Z,36.31
2019-02-19T10:37:52.654Z,35.07
2019-02-19T10:40:22.351Z,34.23
2019-02-19T10:42:52.015Z,35.60
2019-02-19T10:45:21.743Z,35.88
2019-02-19T10:47:51.580Z,35.62
2019-02-19T10:50:21.373Z,35.66
2019-02-19T10:52:51.770Z,35.45
2019-02-19T10:55:21.743Z,35.71
2019-02-19T10:57:51.404Z,35.20
2019-02-19T11:00:22.483Z,35.04
2019-02-19T11:02:52.165Z,35.01
2019-02-19T11:05:22.132Z,35.19
2019-02-19T11:07:51.897Z,35.13
2019-02-19T11:10:21.642Z,35.35
2019-02-19T11:12:51.369Z,35.74
2019-02-19T11:15:20.961Z,36.20
2019-02-19T11:17:50.565Z,36.39
2019-02-19T11:20:20.477Z,36.63
2019-02-19T11:22:50.164Z,36.86
2019-02-19T11:25:19.799Z,36.87
2019-02-19T11:27:49.699Z,37.13
2019-02-19T11:30:20.468Z,37.16
2019-02-19T11:32:50.546Z,37.19
2019-02-19T11:35:20.463Z,37.43
2019-02-19T11:37:50.166Z,37.58
2019-02-19T11:40:20.044Z,37.50
2019-02-19T11:42:49.810Z,37.65
2019-02-19T11:45:19.519Z,37.66
2019-02-19T11:47:49.258Z,38.04
2019-02-19T11:50:19.058Z,38.26
2019-02-19T11:52:48.660Z,38.37
2019-02-19T11:55:18.462Z,38.38
2019-02-19T11:57:48.068Z,38.17
2019-02-19T12:00:20.763Z,38.24
2019-02-19T12:02:50.436Z,38.26
2019-02-19T12:05:20.171Z,38.29
2019-02-19T12:07:49.880Z,38.32
2019-02-19T12:10:19.516Z,38.45
2019-02-19T12:12:49.195Z,38.28
2019-02-19T12:15:19.332Z,38.28
2019-02-19T12:17:49.025Z,38.25
2019-02-19T12:20:18.692Z,38.23
2019-02-19T12:22:48.342Z,38.22
2019-02-19T12:25:18.054Z,38.17
2019-02-19T12:27:47.699Z,38.16
2019-02-19T12:30:17.482Z,38.16
2019-02-19T12:32:47.168Z,38.10
2019-02-19T12:35:17.007Z,38.01
2019-02-19T12:37:49.473Z,37.96
2019-02-19T12:40:19.387Z,37.95
2019-02-19T12:42:49.290Z,37.93
2019-02-19T12:45:19.305Z,37.84
2019-02-19T12:47:49.075Z,37.83
2019-02-19T12:50:18.782Z,37.72
2019-02-19T12:52:48.589Z,37.73
2019-02-19T12:55:18.369Z,37.65
2019-02-19T12:57:48.004Z,37.58
2019-02-19T13:00:17.794Z,37.65
2019-02-19T13:02:47.433Z,37.55
2019-02-19T13:05:17.311Z,37.57
2019-02-19T13:07:47.206Z,37.50
2019-02-19T13:10:16.992Z,37.52
2019-02-19T13:12:46.707Z,37.52
2019-02-19T13:15:16.579Z,37.52
2019-02-19T13:17:46.298Z,37.42
2019-02-19T13:20:16.399Z,37.45
2019-02-19T13:22:46.021Z,37.55
2019-02-19T13:25:15.728Z,37.46
2019-02-19T13:27:45.472Z,37.34
2019-02-19T13:30:16.020Z,37.33
2019-02-19T13:32:45.887Z,37.21
2019-02-19T13:35:15.560Z,37.15
2019-02-19T13:37:45.233Z,37.17
2019-02-19T13:40:15.184Z,37.11
2019-02-19T13:42:44.928Z,36.92
2019-02-19T13:45:14.795Z,37.14
2019-02-19T13:47:44.553Z,37.18
2019-02-19T13:50:16.637Z,32.18
2019-02-19T13:53:05.098Z,34.08
2019-02-19T13:55:43.524Z,35.59
2019-02-19T13:58:13.366Z,35.98
2019-02-19T14:00:44.449Z,35.82
2019-02-19T14:03:14.261Z,35.76
2019-02-19T14:05:43.890Z,35.70
2019-02-19T14:08:14.853Z,35.59
2019-02-19T14:10:44.821Z,35.58
2019-02-19T14:13:14.582Z,35.51
2019-02-19T14:16:08.965Z,35.39
2019-02-19T14:19:03.525Z,35.36
2019-02-19T14:22:00.901Z,35.32
2019-02-19T14:24:55.831Z,35.36
2019-02-19T14:27:53.447Z,35.34
2019-02-19T14:30:50.761Z,35.37
2019-02-19T14:33:29.036Z,35.35
2019-02-19T14:36:10.330Z,35.28
2019-02-19T14:39:07.945Z,35.35
2019-02-19T14:41:59.543Z,35.42
2019-02-19T14:44:46.927Z,35.36
2019-02-19T14:47:38.268Z,34.63
2019-02-19T14:50:26.836Z,34.90
2019-02-19T14:53:14.256Z,34.91
2019-02-19T14:55:55.029Z,34.82
2019-02-19T14:58:34.452Z,34.82
2019-02-19T15:01:30.269Z,34.79
2019-02-19T15:04:21.520Z,34.88
2019-02-19T15:07:15.716Z,34.79
2019-02-19T15:10:02.756Z,34.91
2019-02-19T15:12:47.381Z,34.98
2019-02-19T15:15:51.060Z,35.52
2019-02-19T15:18:38.493Z,35.20
2019-02-19T15:21:32.595Z,34.97
2019-02-19T15:24:21.679Z,34.94
2019-02-19T15:27:19.299Z,35.20
2019-02-19T15:30:18.717Z,35.23
2019-02-19T15:33:13.255Z,35.24
2019-02-19T15:36:13.627Z,35.43
2019-02-19T15:39:08.446Z,35.52
2019-02-19T15:41:56.866Z,35.64
2019-02-19T15:44:54.477Z,35.69
2019-02-19T15:47:49.036Z,35.74
2019-02-19T15:50:36.452Z,35.83
2019-02-19T15:53:43.178Z,35.85
2019-02-19T15:56:37.636Z,35.94
2019-02-19T15:59:38.167Z,36.10
2019-02-19T16:02:25.279Z,36.15
2019-02-19T16:05:19.771Z,36.45
2019-02-19T16:08:15.164Z,36.42
2019-02-19T16:11:01.555Z,36.27
2019-02-19T16:13:45.234Z,36.50
2019-02-19T16:16:32.281Z,36.40
2019-02-19T16:19:32.815Z,36.23
2019-02-19T16:22:21.522Z,36.28
2019-02-19T16:25:02.109Z,36.28
2019-02-19T16:27:43.447Z,37.19
2019-02-19T16:30:31.938Z,36.93
2019-02-19T16:33:19.324Z,36.80
2019-02-19T16:35:58.505Z,37.64
2019-02-19T16:38:36.572Z,37.97
2019-02-19T16:41:28.067Z,37.56
2019-02-19T16:44:15.042Z,37.10
2019-02-19T16:47:00.424Z,37.08
2019-02-19T16:49:50.222Z,37.20
2019-02-19T16:52:37.344Z,37.19
2019-02-19T16:55:16.590Z,38.20
2019-02-19T16:57:51.650Z,37.75
2019-02-19T17:00:45.834Z,37.85
2019-02-19T17:03:39.059Z,34.81
2019-02-19T17:06:33.541Z,35.70
2019-02-19T17:09:20.153Z,36.55
2019-02-19T17:12:08.582Z,37.16
2019-02-19T17:14:46.967Z,37.19
2019-02-19T17:17:31.360Z,37.92
2019-02-19T17:20:29.691Z,37.28
2019-02-19T17:23:36.599Z,37.16
2019-02-19T17:26:15.402Z,37.42
2019-02-19T17:28:59.605Z,37.33
2019-02-19T17:31:35.255Z,37.43
2019-02-19T17:34:17.355Z,37.47
2019-02-19T17:37:15.242Z,37.65
2019-02-19T17:40:06.577Z,37.62
2019-02-19T17:42:51.644Z,37.78
2019-02-19T17:45:33.864Z,37.88
2019-02-19T17:48:14.835Z,38.09
2019-02-19T17:51:15.463Z,37.98
2019-02-19T17:54:12.697Z,37.97
2019-02-19T17:56:59.772Z,38.00
2019-02-19T17:59:46.998Z,37.90
2019-02-19T18:02:26.359Z,38.03
2019-02-19T18:05:13.081Z,38.10
2019-02-19T18:07:50.558Z,38.16
2019-02-19T18:10:39.008Z,38.22
2019-02-19T18:13:33.641Z,38.14
2019-02-19T18:16:15.332Z,38.17
2019-02-19T18:18:49.533Z,38.75
2019-02-19T18:21:20.109Z,38.59
2019-02-19T18:23:49.915Z,38.76
2019-02-19T18:26:19.568Z,39.06
2019-02-19T18:28:49.384Z,38.79
2019-02-19T18:31:20.630Z,39.03
2019-02-19T18:33:50.225Z,38.92
2019-02-19T18:36:20.194Z,38.85
2019-02-19T18:38:49.875Z,39.04
2019-02-19T18:41:19.656Z,38.74
2019-02-19T18:43:49.387Z,38.51
2019-02-19T18:46:19.139Z,38.39
2019-02-19T18:48:48.899Z,38.35
2019-02-19T18:51:18.717Z,38.34
2019-02-19T18:53:48.544Z,38.29
2019-02-19T18:56:18.328Z,38.62
2019-02-19T18:58:48.378Z,38.52
2019-02-19T19:01:17.870Z,38.57
2019-02-19T19:03:47.567Z,38.48
2019-02-19T19:06:18.362Z,38.48
2019-02-19T19:08:48.329Z,38.50
2019-02-19T19:11:18.052Z,38.68
2019-02-19T19:13:47.733Z,38.76
2019-02-19T19:16:17.663Z,38.78
2019-02-19T19:18:47.152Z,38.69
2019-02-19T19:21:16.877Z,38.70
2019-02-19T19:23:46.506Z,38.78
2019-02-19T19:26:16.194Z,38.69
2019-02-19T19:28:45.827Z,38.67
2019-02-19T19:31:15.507Z,38.63
2019-02-19T19:33:45.212Z,38.69
2019-02-19T19:36:14.955Z,38.66
2019-02-19T19:38:44.735Z,38.49
2019-02-19T19:41:14.429Z,38.66
2019-02-19T19:43:44.068Z,38.84
2019-02-19T19:46:13.781Z,38.82
2019-02-19T19:48:43.498Z,38.88
2019-02-19T19:51:17.277Z,39.16
2019-02-19T19:53:44.865Z,39.23
2019-02-19T19:56:14.578Z,39.25
2019-02-19T19:58:44.419Z,39.63
2019-02-19T20:01:13.998Z,40.19
2019-02-19T20:03:43.698Z,40.23
2019-02-19T20:06:13.328Z,40.22
2019-02-19T20:08:43.119Z,39.84
2019-02-19T20:11:12.821Z,39.86
2019-02-19T20:13:42.644Z,39.96
2019-02-19T20:16:12.342Z,39.86
2019-02-19T20:18:42.280Z,39.76
2019-02-19T20:21:11.993Z,39.69
2019-02-19T20:23:41.635Z,39.73
2019-02-19T20:26:11.398Z,39.70
2019-02-19T20:28:41.125Z,39.46
2019-02-19T20:31:10.928Z,39.40
2019-02-19T20:33:40.562Z,39.36
2019-02-19T20:36:10.346Z,39.28
2019-02-19T20:38:39.969Z,39.33
2019-02-19T20:41:09.766Z,39.20
2019-02-19T20:43:39.500Z,39.31
2019-02-19T20:46:09.187Z,39.31
2019-02-19T20:48:38.942Z,39.23
2019-02-19T20:51:08.537Z,39.22
2019-02-19T20:53:38.525Z,39.31
2019-02-19T20:56:08.228Z,39.28
2019-02-19T20:58:38.125Z,39.21
2019-02-19T21:01:07.941Z,39.30
2019-02-19T21:03:37.777Z,39.27
2019-02-19T21:06:07.779Z,39.32
2019-02-19T21:08:37.496Z,39.42
2019-02-19T21:11:07.396Z,39.20
2019-02-19T21:13:37.271Z,39.17
2019-02-19T21:16:07.226Z,39.11
2019-02-19T21:18:36.971Z,39.12
2019-02-19T21:21:08.366Z,39.18
2019-02-19T21:23:38.233Z,39.08
2019-02-19T21:26:08.123Z,39.09
2019-02-19T21:28:38.043Z,39.01
2019-02-19T21:31:07.858Z,39.01
2019-02-19T21:33:37.990Z,39.01
2019-02-19T21:36:07.885Z,39.01
2019-02-19T21:38:37.718Z,38.94
2019-02-19T21:41:07.908Z,38.89
2019-02-19T21:43:37.823Z,38.93
2019-02-19T21:46:07.761Z,38.85
2019-02-19T21:48:37.676Z,38.92
2019-02-19T21:51:07.544Z,38.91
2019-02-19T21:53:37.403Z,38.84
2019-02-19T21:56:07.402Z,38.77
2019-02-19T21:58:37.229Z,38.81
2019-02-19T22:01:07.132Z,38.93
2019-02-19T22:03:36.911Z,38.87
2019-02-19T22:06:06.815Z,38.92
2019-02-19T22:08:36.603Z,38.96
2019-02-19T22:11:06.722Z,39.07
2019-02-19T22:13:36.687Z,39.03
2019-02-19T22:16:06.562Z,38.98
2019-02-19T22:18:36.550Z,38.89
2019-02-19T22:21:25.298Z,39.03
2019-02-19T22:23:55.143Z,38.98
2019-02-19T22:26:25.029Z,39.09
2019-02-19T22:28:55.045Z,39.02
2019-02-19T22:31:24.859Z,39.00
2019-02-19T22:33:54.743Z,39.00
2019-02-19T22:36:24.542Z,39.02
2019-02-19T22:38:54.512Z,39.01
2019-02-19T22:41:24.388Z,39.03
2019-02-19T22:43:54.347Z,39.08
2019-02-19T22:46:24.152Z,39.32
2019-02-19T22:48:53.972Z,39.25
2019-02-19T22:51:24.019Z,39.31
2019-02-19T22:54:24.817Z,39.38
2019-02-19T22:56:54.660Z,39.32
2019-02-19T22:59:24.555Z,39.26
2019-02-19T23:02:15.970Z,39.31
2019-02-19T23:04:45.793Z,39.28
2019-02-19T23:07:15.740Z,39.33
2019-02-19T23:09:45.612Z,39.41
2019-02-19T23:12:15.370Z,39.24
2019-02-19T23:14:45.294Z,39.25
2019-02-19T23:17:15.334Z,39.25
2019-02-19T23:19:45.093Z,39.22
2019-02-19T23:22:21.350Z,39.13
2019-02-19T23:24:46.496Z,39.18
2019-02-19T23:27:16.403Z,39.14
2019-02-19T23:29:46.194Z,39.04
2019-02-19T23:32:16.115Z,39.02
2019-02-19T23:34:46.937Z,39.00
2019-02-19T23:37:19.359Z,39.10
2019-02-19T23:39:49.322Z,39.04
2019-02-19T23:42:19.128Z,39.05
2019-02-19T23:44:49.068Z,39.02
2019-02-19T23:47:19.101Z,39.02
2019-02-19T23:49:49.005Z,38.98
2019-02-19T23:52:18.934Z,39.00
2019-02-19T23:54:48.806Z,39.05
2019-02-19T23:57:18.685Z,39.07
2019-02-19T23:59:48.542Z,39.04
